Time;durP1;ratioP1;P1;durP2;ratioP2;P2;SDS_P1;SDS_P2;PMS_P1;PMS_P2;Temp;Humidity;BMP_temperature;BMP_pressure;BME280_temperature;BME280_humidity;BME280_pressure;Samples;Min_cycle;Max_cycle;Signal;HPM_P1;HPM_P2
2022/01/22 00:01:43;;;;;;;17.15;4.72;;;4.10;99.90;;;2.42;100.00;101702.47;4878809;28;20636;-84
2022/01/22 00:04:49;;;;;;;;;;;;;;;;;;;;;
2022/01/22 00:07:15;;;;;;;20.17;4.85;;;4.00;99.90;;;2.37;100.00;101706.75;4846958;28;20650;-80
2022/01/22 00:09:48;;;;;;;12.93;4.80;;;4.10;99.90;;;2.35;100.00;101703.28;4905174;28;20049;-81
2022/01/22 00:12:30;;;;;;;11.35;4.55;;;4.00;99.90;;;2.31;100.00;101704.13;4851878;28;20051;-82
2022/01/22 00:14:56;;;;;;;15.02;4.30;;;4.00;99.90;;;2.23;100.00;101686.78;4884336;28;20019;-82
2022/01/22 00:17:22;;;;;;;15.55;4.95;;;4.00;99.90;;;2.25;100.00;101677.28;4875247;28;20031;-81
2022/01/22 00:19:47;;;;;;;21.85;5.60;;;4.00;99.90;;;2.29;100.00;101685.97;4845576;28;20123;-82
2022/01/22 00:22:13;;;;;;;18.17;4.45;;;4.00;99.90;;;2.29;100.00;101695.47;4871862;28;20035;-80
2022/01/22 00:24:40;;;;;;;15.60;4.78;;;3.90;99.90;;;2.29;100.00;101704.16;4863074;28;20891;-81
2022/01/22 00:27:15;;;;;;;21.08;5.28;;;3.90;99.90;;;2.29;100.00;101693.75;4865632;28;20051;-80
2022/01/22 00:29:41;;;;;;;10.73;4.47;;;4.00;99.90;;;2.30;100.00;101689.41;4863604;28;20122;-80
2022/01/22 00:32:07;;;;;;;13.75;3.75;;;3.90;99.90;;;2.30;100.00;101695.47;4854034;28;20038;-80
2022/01/22 00:34:34;;;;;;;8.73;3.58;;;4.00;99.90;;;2.33;100.00;101705.00;4901599;28;20085;-79
2022/01/22 00:37:04;;;;;;;24.00;3.10;;;4.00;99.90;;;2.30;100.00;101694.59;4864425;28;20021;-81
2022/01/22 00:39:30;;;;;;;13.07;3.95;;;;;;;2.30;100.00;101705.00;4826626;28;20046;-81
2022/01/22 00:41:56;;;;;;;12.32;3.88;;;3.90;99.90;;;2.22;100.00;101705.81;4877606;28;20102;-81
2022/01/22 00:44:22;;;;;;;12.57;3.55;;;3.90;99.90;;;2.11;100.00;101676.34;4880403;28;22450;-80
2022/01/22 00:46:48;;;;;;;8.98;3.05;;;3.80;99.90;;;1.99;100.00;101710.09;4861815;28;20039;-80
2022/01/22 00:49:24;;;;;;;10.77;2.97;;;3.60;99.90;;;1.85;100.00;101716.06;4841968;28;20137;-80
2022/01/22 00:51:51;;;;;;;8.57;3.40;;;3.50;99.90;;;1.73;100.00;101709.94;4857669;28;20388;-80
2022/01/22 00:54:17;;;;;;;8.20;3.25;;;3.40;99.90;;;1.58;100.00;101713.34;4853907;28;20031;-79
2022/01/22 00:56:51;;;;;;;10.30;3.53;;;3.30;99.90;;;1.44;100.00;101706.28;4874750;28;20094;-81
2022/01/22 00:59:18;;;;;;;8.40;2.85;;;3.10;99.90;;;1.34;100.00;101701.03;4857809;28;20059;-79
2022/01/22 01:01:44;;;;;;;6.80;2.45;;;3.00;99.90;;;1.20;100.00;101706.13;4857695;28;20144;-81
2022/01/22 01:04:18;;;;;;;6.18;2.05;;;2.90;99.90;;;1.10;100.00;101712.09;4849013;28;20035;-80
2022/01/22 01:06:45;;;;;;;8.02;3.00;;;2.80;99.90;;;0.99;100.00;101697.34;4843743;28;20114;-80
2022/01/22 01:09:11;;;;;;;4.47;2.00;;;2.70;99.90;;;0.91;100.00;101701.59;4842510;28;20039;-83
2022/01/22 01:11:45;;;;;;;9.75;2.67;;;2.60;99.90;;;0.87;100.00;101698.97;4863780;28;20036;-80
2022/01/22 01:14:20;;;;;;;11.77;2.33;;;2.60;99.90;;;0.82;100.00;101706.66;4856693;28;20053;-81
2022/01/22 01:17:11;;;;;;;7.75;2.30;;;2.50;99.90;;;0.80;100.00;101711.00;4858243;28;20031;-80
2022/01/22 01:36:00;;;;;;;7.72;2.60;;;2.10;99.90;;;0.44;100.00;101746.03;4906946;28;20034;-79
2022/01/22 01:38:26;;;;;;;13.95;3.17;;;2.10;99.90;;;0.48;100.00;101750.41;4857231;28;20026;-79
2022/01/22 01:41:03;;;;;;;9.25;2.20;;;2.20;99.90;;;0.53;100.00;101764.28;4869680;28;20024;-79
2022/01/22 01:43:35;;;;;;;10.57;2.72;;;2.20;99.90;;;0.53;100.00;101774.63;4877716;28;20092;-79
2022/01/22 01:46:01;;;;;;;5.50;2.25;;;2.20;99.90;;;0.59;100.00;101774.72;4877589;28;20499;-79
2022/01/22 01:48:38;;;;;;;5.05;2.15;;;2.30;99.90;;;0.70;100.00;101766.19;4859994;28;20016;-79
2022/01/22 01:51:05;;;;;;;13.02;2.70;;;2.30;99.90;;;0.79;100.00;101771.47;4876307;28;20134;-79
2022/01/22 01:59:28;;;;;;;12.98;2.13;;;2.60;99.90;;;1.00;100.00;101784.66;4883181;28;20105;-80
2022/01/22 02:01:54;;;;;;;13.13;3.08;;;2.70;99.90;;;1.08;100.00;101789.94;4871456;28;20691;-80
2022/01/22 02:04:20;;;;;;;15.05;2.88;;;2.70;99.90;;;1.16;100.00;101779.59;4865479;28;20035;-80
2022/01/22 02:06:46;;;;;;;12.82;3.10;;;2.80;99.90;;;1.14;100.00;101781.31;4893976;28;20024;-79
2022/01/22 02:09:12;;;;;;;20.08;3.22;;;2.80;99.90;;;1.17;100.00;101791.75;4892088;28;20507;-80
2022/01/22 02:11:43;;;;;;;16.00;3.10;;;2.80;99.90;;;1.19;100.00;101793.47;4878719;28;20071;-80
2022/01/22 02:23:34;;;;;;;23.83;2.88;;;2.80;99.90;;;1.22;100.00;101805.59;4881906;28;20721;-79
2022/01/22 02:25:19;;;;;;;13.95;2.00;;;2.90;99.90;;;1.30;100.00;101829.03;4891145;28;20049;-79
2022/01/22 02:27:45;;;;;;;8.30;2.10;;;3.00;99.90;;;1.34;100.00;101818.69;4914785;28;20023;-78
2022/01/22 02:30:18;;;;;;;10.90;2.22;;;3.00;99.90;;;1.40;100.00;101828.25;4904349;28;20050;-79
2022/01/22 02:35:43;;;;;;;14.02;2.38;;;3.00;99.90;;;1.31;100.00;101844.59;4877206;28;20033;-79
2022/01/22 02:38:19;;;;;;;10.32;1.83;;;3.00;99.90;;;1.32;100.00;101843.78;4893333;28;20040;-79
2022/01/22 02:40:48;;;;;;;9.88;2.03;;;3.00;99.90;;;1.37;100.00;101841.22;4862620;28;20031;-80
2022/01/22 02:43:16;;;;;;;17.67;2.03;;;3.00;99.90;;;1.31;100.00;101852.38;4874511;28;20038;-79
2022/01/22 02:45:45;;;;;;;6.72;1.60;;;2.90;99.90;;;1.22;100.00;101849.72;4858198;28;20172;-78
2022/01/22 02:48:17;;;;;;;7.65;1.70;;;2.90;99.90;;;1.16;100.00;101852.25;4889885;28;20031;-80
2022/01/22 02:50:42;;;;;;;9.73;1.60;;;2.80;99.90;;;1.01;100.00;101856.41;4876665;28;20060;-80
2022/01/22 02:53:13;;;;;;;13.75;2.05;;;2.70;99.90;;;0.98;100.00;101855.53;4888369;28;20055;-80
2022/01/22 02:55:45;;;;;;;22.30;2.10;;;2.70;99.90;;;0.90;100.00;101868.38;4885293;28;20015;-81
2022/01/22 02:58:12;;;;;;;17.48;2.30;;;2.60;99.90;;;0.87;100.00;101858.00;4844830;28;20030;-80
2022/01/22 03:00:38;;;;;;;13.93;2.00;;;2.60;99.90;;;0.79;100.00;101867.41;4862088;28;20023;-80
2022/01/22 03:03:06;;;;;;;16.65;1.90;;;2.50;99.90;;;0.76;100.00;101854.41;4889908;28;20026;-79
2022/01/22 03:05:35;;;;;;;18.05;2.30;;;2.40;99.90;;;0.75;100.00;101878.59;4879008;28;20023;-79
2022/01/22 03:08:06;;;;;;;7.88;1.52;;;2.40;99.90;;;0.77;100.00;101882.06;4850825;28;20019;-80
2022/01/22 03:10:33;;;;;;;8.90;1.48;;;2.40;99.90;;;0.78;100.00;101894.19;4867428;28;20117;-79
2022/01/22 03:18:15;;;;;;;12.35;1.33;;;2.40;99.90;;;0.62;100.00;101911.25;4853287;28;20031;-80
2022/01/22 03:29:03;;;;;;;15.48;1.73;;;2.10;99.90;;;0.29;100.00;101906.47;4862341;28;20045;-79
2022/01/22 03:31:29;;;;;;;11.80;1.30;;;2.00;99.90;;;0.20;100.00;101910.66;4887981;28;20539;-79
2022/01/22 03:33:55;;;;;;;11.75;1.70;;;2.00;99.90;;;0.17;100.00;101926.19;4894303;28;20096;-81
2022/01/22 03:36:21;;;;;;;15.27;1.73;;;1.90;99.90;;;0.08;100.00;101923.44;4866849;28;20502;-79
2022/01/22 03:38:48;;;;;;;10.00;1.85;;;1.80;99.90;;;0.01;100.00;101923.31;4837664;28;20500;-79
2022/01/22 03:41:23;;;;;;;12.40;1.55;;;1.80;99.90;;;-0.01;100.00;101928.47;4863072;28;20039;-80
2022/01/22 03:43:52;;;;;;;17.75;1.30;;;1.70;99.90;;;-0.07;100.00;101930.94;4841612;28;20035;-79
2022/01/22 03:46:25;;;;;;;6.63;1.38;;;1.70;99.90;;;-0.13;100.00;101933.44;4860024;28;20094;-79
2022/01/22 03:48:52;;;;;;;12.68;1.80;;;1.60;99.90;;;-0.16;100.00;101941.16;4866618;28;20059;-79
2022/01/22 03:51:18;;;;;;;6.40;1.15;;;1.60;99.90;;;-0.17;100.00;101942.00;4850953;28;20101;-80
2022/01/22 03:53:44;;;;;;;14.25;1.77;;;1.60;99.90;;;-0.17;100.00;101942.00;4885004;28;20560;-79
2022/01/22 03:56:19;;;;;;;6.72;1.20;;;1.60;99.90;;;-0.17;100.00;101942.00;4863059;28;20099;-78
2022/01/22 03:58:46;;;;;;;7.20;1.10;;;1.50;99.90;;;-0.22;100.00;101940.22;4867508;28;20034;-80
2022/01/22 04:01:58;;;;;;;9.45;1.00;;;1.50;99.90;;;-0.21;100.00;101944.53;4880181;28;20019;-80
2022/01/22 04:04:20;;;;;;;8.38;1.10;;;1.50;99.90;;;-0.19;100.00;101954.94;4882232;28;20097;-80
2022/01/22 04:07:24;;;;;;;6.00;1.20;;;1.50;99.90;;;-0.24;100.00;101961.72;4846436;28;20020;-79
2022/01/22 04:09:42;;;;;;;7.95;1.40;;;1.40;99.90;;;-0.29;100.00;101976.31;4901248;28;20125;-80
2022/01/22 04:12:16;;;;;;;9.15;1.30;;;1.30;99.90;;;-0.35;100.00;101977.06;4846076;28;20051;-80
2022/01/22 04:14:55;;;;;;;8.65;1.40;;;1.30;99.90;;;-0.42;100.00;101977.81;4869989;28;21821;-81
2022/01/22 04:26:12;;;;;;;;;;;1.10;99.90;;;-0.69;100.00;101999.72;4865433;28;20035;-80
2022/01/22 04:28:38;;;;;;;4.07;0.95;;;1.00;99.90;;;-0.71;100.00;102004.00;4902810;28;20060;-79
2022/01/22 04:31:04;;;;;;;10.40;1.00;;;1.00;99.90;;;-0.70;100.00;102004.84;4875436;28;20682;-80
2022/01/22 04:33:39;;;;;;;10.07;1.52;;;1.00;99.90;;;-0.71;100.00;102005.72;4879600;28;20090;-80
2022/01/22 04:36:06;;;;;;;3.45;1.13;;;1.00;99.90;;;-0.69;100.00;102009.16;4902948;28;20030;-80
2022/01/22 04:38:32;;;;;;;6.72;0.93;;;1.00;99.90;;;-0.71;100.00;102004.00;4878688;28;20030;-79
2022/01/22 04:40:59;;;;;;;12.35;1.33;;;1.00;99.90;;;-0.72;100.00;102017.75;4895933;28;20031;-78
2022/01/22 04:43:30;;;;;;;4.82;0.90;;;1.00;99.90;;;-0.73;100.00;102021.19;4896282;28;20027;-79
2022/01/22 04:47:14;;;;;;;3.42;0.85;;;1.00;99.90;;;-0.72;100.00;102024.63;4866462;28;20050;-79
2022/01/22 04:49:13;;;;;;;7.72;1.15;;;1.00;99.90;;;-0.68;100.00;102036.81;4916879;28;20038;-79
2022/01/22 04:57:18;;;;;;;8.85;1.00;;;0.90;99.90;;;-0.89;100.00;102024.28;4892913;28;20045;-79
2022/01/22 04:59:45;;;;;;;6.13;0.77;;;0.80;99.90;;;-0.94;100.00;102020.75;4876300;28;20026;-78
2022/01/22 05:02:11;;;;;;;6.00;0.73;;;0.80;99.90;;;-0.98;100.00;102019.78;4873818;28;20043;-78
2022/01/22 05:04:38;;;;;;;8.32;1.10;;;0.70;99.90;;;-1.02;100.00;102027.44;4845990;28;20129;-79
2022/01/22 05:07:05;;;;;;;4.38;0.98;;;0.60;99.90;;;-1.16;100.00;102030.59;4875883;28;20063;-78
2022/01/22 05:09:34;;;;;;;8.63;0.90;;;0.60;99.90;;;-1.19;100.00;102035.69;4864215;28;20435;-78
2022/01/22 05:12:00;;;;;;;5.15;0.95;;;0.60;99.90;;;-1.12;100.00;102044.47;4853760;28;20079;-78
2022/01/22 05:14:26;;;;;;;3.42;0.50;;;0.60;99.90;;;-1.13;100.00;102048.75;4872263;28;20019;-78
2022/01/22 05:16:54;;;;;;;5.03;1.00;;;0.60;99.90;;;-1.10;100.00;102053.13;4873626;28;20030;-78
2022/01/22 05:19:37;;;;;;;5.90;0.90;;;0.60;99.90;;;-1.07;100.00;102060.97;4897628;28;20027;-78
2022/01/22 05:24:59;;;;;;;4.00;0.80;;;0.60;99.90;;;-1.07;100.00;102061.81;4861150;28;20087;-79
2022/01/22 05:27:55;;;;;;;4.00;0.90;;;0.60;99.90;;;-1.10;100.00;102064.34;4918078;28;20055;-79
2022/01/22 05:38:09;;;;;;;2.00;0.63;;;0.30;99.90;;;-1.42;100.00;102083.41;4862900;28;20403;-79
2022/01/22 05:40:36;;;;;;;2.58;0.82;;;0.30;99.90;;;-1.47;100.00;102089.34;4891436;28;20043;-79
2022/01/22 05:43:04;;;;;;;2.30;0.52;;;0.20;99.90;;;-1.50;100.00;102078.91;4879000;28;20019;-79
2022/01/22 05:45:38;;;;;;;6.32;0.95;;;0.30;99.90;;;-1.52;100.00;102085.75;4859782;28;20463;-80
2022/01/22 05:48:04;;;;;;;11.35;1.20;;;0.20;99.90;;;-1.52;100.00;102088.31;4878992;28;20495;-80
2022/01/22 05:50:35;;;;;;;7.50;1.10;;;0.20;99.90;;;-1.51;100.00;102087.50;4897954;28;20107;-79
2022/01/22 05:53:14;;;;;;;3.08;0.80;;;0.20;99.90;;;-1.55;100.00;102084.81;4862058;28;20170;-80
2022/01/22 06:01:11;;;;;;;4.32;0.80;;;0.10;99.90;;;-1.57;100.00;102110.59;4907475;28;20054;-79
2022/01/22 06:03:37;;;;;;;10.10;1.10;;;0.20;99.90;;;-1.55;100.00;102108.06;4866520;28;20051;-80
2022/01/22 06:06:06;;;;;;;7.30;0.90;;;0.10;99.90;;;-1.55;100.00;102111.50;4881921;28;20023;-79
2022/01/22 06:08:41;;;;;;;3.95;0.95;;;0.10;99.90;;;-1.55;100.00;102118.38;4836089;28;20040;-80
2022/01/22 06:11:12;;;;;;;8.35;1.00;;;0.10;99.90;;;-1.54;100.00;102118.41;4874613;28;20112;-79
2022/01/22 06:13:50;;;;;;;7.55;0.88;;;0.20;99.90;;;-1.51;100.00;102131.41;4870028;28;20082;-80
2022/01/22 06:16:21;;;;;;;4.97;0.82;;;0.20;99.90;;;-1.49;100.00;102132.34;4901828;28;20036;-79
2022/01/22 06:18:49;;;;;;;11.50;1.27;;;0.20;99.90;;;-1.43;100.00;102144.50;4881857;28;20547;-79
2022/01/22 06:21:23;;;;;;;6.28;0.60;;;0.20;99.90;;;-1.39;100.00;102153.22;4869209;28;20034;-80
2022/01/22 06:23:49;;;;;;;5.82;1.00;;;0.30;99.90;;;-1.39;100.00;102145.47;4912412;28;20446;-80
2022/01/22 06:26:15;;;;;;;4.82;0.82;;;0.30;99.90;;;-1.38;100.00;102157.53;4909042;28;20030;-79
2022/01/22 06:28:41;;;;;;;5.43;0.82;;;0.30;99.90;;;-1.34;100.00;102161.97;4869028;28;20019;-79
2022/01/22 06:31:16;;;;;;;7.60;1.30;;;0.30;99.90;;;-1.35;100.00;102155.94;4854908;28;20086;-79
2022/01/22 06:33:42;;;;;;;10.25;1.15;;;0.40;99.90;;;-1.33;100.00;102161.16;4856668;28;20106;-79
2022/01/22 06:36:08;;;;;;;6.32;0.98;;;0.40;99.90;;;-1.34;100.00;102164.53;4917678;28;20043;-79
2022/01/22 06:38:39;;;;;;;3.42;0.80;;;0.40;99.90;;;-1.31;100.00;102174.97;4909098;28;20062;-79
2022/01/22 06:43:49;;;;;;;8.80;1.00;;;0.50;99.90;;;-1.25;100.00;102175.13;4906681;28;20540;-80
2022/01/22 06:46:15;;;;;;;5.70;0.90;;;0.10;99.90;;;-1.15;100.00;102182.25;4862069;28;20035;-79
2022/01/22 06:48:41;;;;;;;11.05;1.20;;;0.50;99.90;;;-1.12;100.00;102171.16;4896527;28;20104;-79
2022/01/22 06:51:15;;;;;;;4.47;0.95;;;0.60;99.90;;;-1.07;100.00;102175.56;4902428;28;20114;-79
2022/01/22 06:53:41;;;;;;;5.32;0.90;;;0.60;99.90;;;-1.02;100.00;102169.66;4885819;28;20022;-79
2022/01/22 06:56:09;;;;;;;8.88;1.27;;;0.60;99.90;;;-0.96;100.00;102174.97;4861034;28;20093;-78
2022/01/22 06:58:35;;;;;;;7.07;0.93;;;0.60;99.90;;;-0.92;100.00;102188.00;4885972;28;20492;-79
2022/01/22 07:01:03;;;;;;;2.50;0.70;;;0.70;99.90;;;-0.87;100.00;102185.53;4918091;28;20185;-78
2022/01/22 07:03:30;;;;;;;3.28;0.70;;;0.70;99.90;;;-0.88;100.00;102179.50;4890006;28;20031;-79
2022/01/22 07:05:56;;;;;;;3.45;0.90;;;0.70;99.90;;;-0.87;100.00;102175.19;4906217;28;20031;-79
2022/01/22 07:08:22;;;;;;;6.15;1.10;;;0.70;99.90;;;-0.90;100.00;102178.56;4864349;28;20111;-77
2022/01/22 07:10:51;;;;;;;9.73;1.10;;;0.70;99.90;;;-0.92;100.00;102184.56;4877265;28;20045;-78
2022/01/22 07:13:19;;;;;;;5.55;0.85;;;0.60;99.90;;;-0.99;100.00;102190.38;4859784;28;20043;-78
2022/01/22 07:15:45;;;;;;;4.35;0.73;;;0.60;99.90;;;-1.05;100.00;102201.47;4896935;28;20036;-78
2022/01/22 07:18:13;;;;;;;6.13;1.00;;;0.60;99.90;;;-1.08;100.00;102197.13;4912554;28;20102;-78
2022/01/22 07:20:41;;;;;;;6.25;1.00;;;0.50;99.90;;;-1.12;100.00;102197.88;4883445;28;20086;-78
2022/01/22 07:23:19;;;;;;;2.35;0.70;;;0.50;99.90;;;-1.16;100.00;102200.34;4882699;28;20039;-78
2022/01/22 07:25:45;;;;;;;8.70;1.00;;;0.40;99.90;;;-1.21;100.00;102209.66;4896999;28;20042;-77
2022/01/22 07:28:18;;;;;;;6.65;1.30;;;0.40;99.90;;;-1.25;100.00;102200.97;4913426;28;20034;-78
2022/01/22 07:30:46;;;;;;;3.22;0.90;;;0.40;99.90;;;-1.32;100.00;102201.63;4894255;28;20065;-77
2022/01/22 07:33:12;;;;;;;4.97;1.02;;;0.30;99.90;;;-1.37;100.00;102211.84;4880704;28;20085;-79
2022/01/22 07:35:47;;;;;;;2.50;1.10;;;0.30;99.90;;;-1.38;100.00;102204.97;4866662;28;20031;-78
2022/01/22 07:38:13;;;;;;;8.98;1.20;;;0.20;99.90;;;-1.41;100.00;102197.09;4876720;28;20039;-78
2022/01/22 07:40:40;;;;;;;4.60;1.25;;;0.20;99.90;;;-1.39;100.00;102213.53;4900383;28;20631;-77
2022/01/22 07:43:14;;;;;;;3.03;1.13;;;0.20;99.90;;;-1.36;100.00;102208.47;4871207;28;20110;-78
2022/01/22 07:45:41;;;;;;;4.50;1.00;;;0.20;99.90;;;-1.30;100.00;102206.00;4893083;28;20023;-77
2022/01/22 07:48:07;;;;;;;9.10;1.27;;;0.30;99.90;;;-1.21;100.00;102209.66;4868901;28;20604;-77
2022/01/22 07:50:33;;;;;;;2.47;0.93;;;0.30;99.90;;;-1.13;100.00;102215.91;4898030;28;20123;-77
2022/01/22 07:53:02;;;;;;;4.05;0.88;;;0.40;99.90;;;-1.03;100.00;102220.50;4898986;28;20111;-77
2022/01/22 07:55:31;;;;;;;4.47;0.85;;;0.50;99.90;;;-0.94;100.00;102222.44;4881277;28;20023;-77
2022/01/22 07:57:57;;;;;;;6.55;0.82;;;0.50;99.90;;;-0.84;100.00;102234.75;4909585;28;20441;-77
2022/01/22 08:00:24;;;;;;;7.82;1.00;;;0.60;99.90;;;-0.73;100.00;102245.38;4907705;28;20149;-77
2022/01/22 08:02:50;;;;;;;5.18;1.08;;;0.70;99.90;;;-0.64;100.00;102241.28;4911396;28;20065;-76
2022/01/22 08:05:21;;;;;;;8.35;1.55;;;0.70;99.90;;;-0.57;100.00;102246.59;4893547;28;20035;-76
2022/01/22 08:07:48;;;;;;;13.20;2.40;;;0.80;99.90;;;-0.53;100.00;102254.47;4897113;28;20033;-77
2022/01/22 08:10:17;;;;;;;7.43;2.25;;;0.80;99.90;;;-0.52;100.00;102250.16;4872246;28;20070;-75
2022/01/22 08:12:50;;;;;;;7.20;1.85;;;0.80;99.90;;;-0.46;100.00;102247.72;4904673;28;20066;-77
2022/01/22 08:15:18;;;;;;;11.68;1.65;;;0.90;99.90;;;-0.43;100.00;102252.97;4915130;28;20031;-77
2022/01/22 08:17:44;;;;;;;6.65;1.30;;;0.90;99.90;;;-0.38;100.00;102259.13;4889345;28;20418;-77
2022/01/22 08:20:21;;;;;;;3.70;1.40;;;1.00;99.90;;;-0.31;100.00;102265.31;4865625;28;20114;-77
2022/01/22 08:22:47;;;;;;;7.43;1.67;;;1.00;99.90;;;-0.27;100.00;102270.59;4884522;28;20103;-76
2022/01/22 08:25:16;;;;;;;5.85;1.25;;;1.10;99.90;;;-0.17;100.00;102278.56;4886945;28;20040;-76
2022/01/22 08:30:33;;;;;;;6.20;2.17;;;1.30;99.90;;;-0.06;100.00;102290.06;4891731;28;20370;-76
2022/01/22 08:36:02;;;;;;;3.95;1.50;;;1.30;99.90;;;0.06;100.00;102298.06;4869961;29;20033;-76
2022/01/22 08:38:31;;;;;;;8.20;2.10;;;1.40;99.90;;;0.10;100.00;102294.72;4879129;28;20095;-77
2022/01/22 08:40:57;;;;;;;8.00;2.17;;;1.50;99.90;;;0.11;100.00;102296.47;4910769;28;20051;-77
2022/01/22 08:43:32;;;;;;;7.68;1.77;;;1.50;99.90;;;0.15;100.00;102306.06;4898318;28;20890;-77
2022/01/22 08:46:00;;;;;;;5.03;1.20;;;1.60;99.90;;;0.16;100.00;102300.03;4890310;28;20051;-76
2022/01/22 08:48:26;;;;;;;6.57;1.73;;;1.60;99.90;;;0.26;100.00;102310.56;4899948;28;20023;-77
2022/01/22 08:51:01;;;;;;;4.80;1.50;;;1.70;99.90;;;0.34;100.00;102316.81;4885842;28;20487;-76
2022/01/22 08:53:27;;;;;;;5.78;1.58;;;1.70;99.90;;;0.41;100.00;102318.66;4901744;28;20085;-77
2022/01/22 08:55:53;;;;;;;6.45;1.38;;;1.80;99.90;;;0.47;100.00;102323.97;4922217;28;20035;-75
2022/01/22 08:58:21;;;;;;;8.32;1.27;;;1.80;99.90;;;0.56;100.00;102324.19;4898397;28;20038;-75
2022/01/22 09:00:47;;;;;;;9.88;1.73;;;1.90;99.90;;;0.69;100.00;102329.59;4867525;28;20483;-75
2022/01/22 09:03:18;;;;;;;12.35;1.50;;;2.10;99.90;;;0.81;100.00;102332.44;4888423;28;20027;-76
2022/01/22 09:05:44;;;;;;;14.80;1.92;;;2.20;99.90;;;0.97;100.00;102331.00;4913981;28;20079;-77
2022/01/22 09:08:14;;;;;;;9.25;2.50;;;2.30;99.90;;;1.12;100.00;102335.59;4918538;28;20040;-76
2022/01/22 09:10:42;;;;;;;11.20;2.30;;;2.40;99.90;;;1.21;100.00;102335.78;4892266;28;20035;-77
2022/01/22 09:13:11;;;;;;;18.08;3.33;;;2.40;99.90;;;1.29;100.00;102333.31;4919825;28;20098;-78
2022/01/22 09:15:43;;;;;;;11.82;2.80;;;2.50;99.90;;;1.28;100.00;102334.19;4918703;28;20023;-77
2022/01/22 09:18:10;;;;;;;10.10;2.15;;;2.50;99.90;;;1.26;100.00;102328.09;4893130;28;20027;-76
2022/01/22 09:23:12;;;;;;;1.92;0.98;;;2.50;99.90;;;1.17;100.00;102336.59;4897005;28;20105;-77
2022/01/22 09:25:41;;;;;;;25.08;18.13;;;2.60;99.90;;;1.24;100.00;102338.44;4873143;28;20034;-77
2022/01/22 09:28:12;;;;;;;1999.90;999.90;;;2.60;99.90;;;1.27;100.00;102354.03;4931630;28;20070;-76
2022/01/22 09:30:41;;;;;;;15.43;14.32;;;2.60;99.90;;;1.30;99.80;102348.06;4912508;28;20043;-77
2022/01/22 09:33:10;;;;;;;140.23;32.75;;;2.70;99.90;;;1.40;100.00;102355.13;4874805;28;20113;-77
2022/01/22 09:35:37;;;;;;;2.45;0.70;;;2.70;99.90;;;1.46;99.87;102362.16;4920834;28;20024;-77
2022/01/22 09:38:10;;;;;;;211.07;14.77;;;2.80;99.90;;;1.48;99.35;102363.06;4890164;28;20028;-76
2022/01/22 09:40:36;;;;;;;13.32;1.08;;;2.80;99.90;;;1.47;99.21;102369.09;4872443;28;20685;-77
2022/01/22 09:43:09;;;;;;;3.65;1.00;;;2.80;99.90;;;1.43;98.55;102366.44;4865468;28;20045;-77
2022/01/22 09:45:35;;;;;;;4.30;0.95;;;2.80;99.90;;;1.47;98.47;102370.00;4878241;28;20090;-77
2022/01/22 09:48:04;;;;;;;3.33;1.13;;;2.80;99.90;;;1.41;98.88;102381.13;4910108;28;20137;-76
2022/01/22 09:50:35;;;;;;;5.45;1.08;;;2.80;99.90;;;1.39;98.66;102374.16;4874592;28;20070;-77
2022/01/22 09:53:07;;;;;;;2.17;0.85;;;2.80;99.90;;;1.39;99.03;102375.03;4890073;28;20032;-77
2022/01/22 09:55:33;;;;;;;3.15;0.98;;;2.80;99.90;;;1.38;98.52;102368.09;4895171;28;20044;-77
2022/01/22 09:58:02;;;;;;;4.15;1.00;;;2.80;99.90;;;1.40;98.18;102373.31;4895956;28;20051;-78
2022/01/22 10:00:31;;;;;;;5.22;1.20;;;2.80;99.90;;;1.41;98.35;102385.44;4887490;28;20038;-77
2022/01/22 10:03:00;;;;;;;2.40;0.90;;;2.80;99.90;;;1.43;99.21;102386.34;4895050;28;20024;-77
2022/01/22 10:05:38;;;;;;;8.10;1.60;;;2.80;99.90;;;1.44;99.21;102393.28;4890420;28;20027;-76
2022/01/22 10:08:31;;;;;;;6.90;0.90;;;2.80;99.90;;;1.46;99.40;102385.53;4920115;28;20077;-76
2022/01/22 10:11:00;;;;;;;3.45;1.15;;;2.80;99.90;;;1.41;99.25;102388.91;4930876;28;20110;-76
2022/01/22 10:13:48;;;;;;;6.22;1.13;;;2.80;99.90;;;1.43;99.23;102388.94;4914558;28;20380;-77
2022/01/22 10:16:32;;;;;;;4.03;0.70;;;2.80;99.90;;;1.38;99.25;102385.38;4911759;28;20036;-76
2022/01/22 10:19:25;;;;;;;6.35;1.05;;;2.80;99.90;;;1.42;99.41;102377.66;4905476;28;21478;-76
2022/01/22 10:21:59;;;;;;;7.60;1.20;;;2.90;99.90;;;1.53;99.24;102384.78;4933695;28;20023;-79
2022/01/22 10:24:40;;;;;;;70.35;6.68;;;3.00;99.90;;;1.72;99.13;102375.59;4897952;28;20038;-78
2022/01/22 10:27:34;;;;;;;2.10;0.95;;;3.10;99.90;;;1.92;98.42;102392.34;4883523;28;20046;-77
2022/01/22 10:30:33;;;;;;;8.95;1.73;;;3.20;99.90;;;2.01;97.72;102394.25;4868920;28;20063;-78
2022/01/22 10:33:33;;;;;;;6.45;1.50;;;3.30;99.90;;;2.04;96.67;102383.88;4918452;28;21245;-78
2022/01/22 10:36:23;;;;;;;9.45;1.42;;;3.40;99.90;;;2.01;95.70;102386.44;4917707;28;20071;-78
2022/01/22 10:38:53;;;;;;;4.70;1.25;;;3.40;99.90;;;1.98;94.86;102371.66;4917044;28;20161;-78
2022/01/22 10:41:46;;;;;;;54.20;12.63;;;3.30;99.90;;;1.99;94.78;102380.34;4896551;28;20082;-78
2022/01/22 10:44:20;;;;;;;262.83;26.02;;;3.40;99.90;;;2.08;95.30;102390.00;4900316;28;20105;-78
2022/01/22 10:47:03;;;;;;;4.68;1.50;;;3.40;99.90;;;2.09;95.17;102391.75;4898501;28;20284;-77
2022/01/22 10:49:36;;;;;;;3.70;1.02;;;3.40;99.90;;;2.01;94.42;102394.25;4913409;28;20048;-78
2022/01/22 10:52:10;;;;;;;56.05;3.15;;;3.40;99.90;;;2.02;94.59;102394.25;4927776;28;20023;-78
2022/01/22 10:54:39;;;;;;;4.80;1.17;;;3.40;99.90;;;2.01;94.10;102384.72;4888583;28;20512;-78
2022/01/22 10:57:25;;;;;;;2.65;1.13;;;3.40;99.90;;;2.05;94.37;102385.63;4895712;28;20039;-78
2022/01/22 11:00:24;;;;;;;4.32;2.10;;;3.40;99.90;;;2.03;94.14;102389.91;4884769;28;20110;-79
2022/01/22 11:02:55;;;;;;;5.43;2.13;;;3.40;99.90;;;2.03;94.17;102403.81;4877619;28;20451;-79
2022/01/22 11:05:38;;;;;;;5.10;1.40;;;3.40;99.90;;;2.09;93.97;102415.13;4850525;28;20047;-79
2022/01/22 11:08:16;;;;;;;2.55;0.95;;;3.40;99.90;;;2.18;94.21;102400.56;4876696;28;20023;-78
2022/01/22 11:10:45;;;;;;;4.60;1.02;;;3.50;99.90;;;2.22;93.63;102411.88;4857499;28;22837;-80
2022/01/22 11:13:26;;;;;;;4.40;1.33;;;3.50;99.90;;;2.23;93.85;102404.09;4855081;28;20046;-80
2022/01/22 11:16:09;;;;;;;10.52;1.80;;;3.60;99.90;;;2.35;93.49;102389.53;4851304;28;20035;-79
2022/01/22 11:18:39;;;;;;;1999.90;999.90;;;3.60;99.90;;;2.35;93.60;102392.13;4865512;28;20055;-78
2022/01/22 11:21:16;;;;;;;3.75;1.20;;;3.70;99.90;;;2.31;93.19;102392.94;4942162;28;20023;-79
2022/01/22 11:23:43;;;;;;;1999.90;999.90;;;;;;;2.26;92.31;102406.72;4902119;28;20905;-78
2022/01/22 11:26:10;;;;;;;1999.90;999.90;;;3.60;99.90;;;2.16;91.81;102394.47;4933073;28;20039;-79
2022/01/22 11:28:38;;;;;;;1999.90;999.90;;;3.60;99.90;;;2.19;92.27;102397.09;4841166;28;20047;-79
2022/01/22 11:31:10;;;;;;;1999.90;999.90;;;3.70;99.90;;;2.35;92.91;102390.38;4856957;28;20035;-79
2022/01/22 11:33:41;;;;;;;1999.90;999.90;;;3.70;99.90;;;2.45;92.28;102396.59;4877986;28;20028;-77
2022/01/22 11:36:24;;;;;;;1999.90;999.90;;;3.70;99.90;;;2.41;90.26;102392.22;4881812;28;20035;-77
2022/01/22 11:39:02;;;;;;;2.58;1.00;;;3.70;99.90;;;2.35;89.60;102394.72;4897359;28;20019;-77
2022/01/22 11:41:33;;;;;;;4.00;1.10;;;3.70;99.90;;;2.33;90.29;102391.22;4893711;28;20023;-78
2022/01/22 11:44:17;;;;;;;3.47;0.77;;;3.70;99.90;;;2.42;90.06;102406.97;4932229;28;20047;-81
2022/01/22 11:46:59;;;;;;;3.75;0.80;;;3.80;99.90;;;2.50;89.46;102407.94;4883744;28;20031;-78
2022/01/22 11:49:34;;;;;;;1.80;0.65;;;3.80;99.90;;;2.56;89.44;102410.63;4915842;28;20050;-79
2022/01/22 11:52:15;;;;;;;2.45;0.50;;;3.80;99.90;;;2.59;88.83;102425.38;4866516;28;20039;-79
2022/01/22 11:54:56;;;;;;;3.55;0.50;;;4.00;99.90;;;2.72;88.76;102419.53;4916104;28;20038;-77
2022/01/22 11:57:27;;;;;;;4.25;1.10;;;4.00;99.90;;;2.75;88.50;102429.09;4925517;28;20697;-78
2022/01/22 12:00:23;;;;;;;2.67;0.85;;;4.10;99.90;;;2.76;88.11;102417.81;4895645;28;20596;-79
2022/01/22 12:03:07;;;;;;;2.67;0.88;;;4.10;99.90;;;2.79;87.16;102413.53;4912428;28;20043;-79
2022/01/22 12:05:53;;;;;;;4.38;0.63;;;4.10;99.90;;;2.77;87.54;102422.19;4909673;28;20077;-80